createdAt,value
2022-11-06T00:02:43.556Z,11.37
2022-11-06T00:07:36.219Z,9.30
2022-11-06T00:12:30.203Z,14.20
2022-11-06T00:17:22.832Z,10.13
2022-11-06T00:22:16.540Z,13.03
2022-11-06T00:27:09.158Z,12.50
2022-11-06T00:32:03.278Z,13.93
2022-11-06T00:36:56.130Z,11.77
2022-11-06T00:41:48.875Z,14.97
2022-11-06T00:46:41.563Z,13.67
2022-11-06T00:51:37.001Z,17.00
2022-11-06T00:56:30.230Z,17.23
2022-11-06T01:01:24.791Z,20.43
2022-11-06T01:06:19.014Z,20.03
2022-11-06T01:11:13.983Z,21.67
2022-11-06T01:16:07.711Z,22.37
2022-11-06T01:21:00.604Z,17.80
2022-11-06T01:25:59.665Z,19.17
2022-11-06T01:30:54.015Z,20.00
2022-11-06T01:35:47.015Z,16.40
2022-11-06T01:40:41.257Z,18.50
2022-11-06T01:45:36.310Z,19.53
2022-11-06T01:50:30.349Z,17.33
2022-11-06T01:55:25.404Z,16.43
2022-11-06T02:00:20.040Z,14.53
2022-11-06T02:05:12.909Z,11.40
2022-11-06T02:10:07.519Z,11.13
2022-11-06T02:15:02.818Z,8.40
2022-11-06T02:20:01.575Z,9.83
2022-11-06T02:25:12.983Z,11.40
2022-11-06T02:30:09.006Z,11.63
2022-11-06T02:35:03.696Z,8.00
2022-11-06T02:39:58.422Z,10.17
2022-11-06T02:44:52.768Z,9.30
2022-11-06T02:49:48.770Z,7.60
2022-11-06T02:54:43.847Z,8.63
2022-11-06T02:59:41.085Z,10.63
2022-11-06T03:04:36.388Z,9.07
2022-11-06T03:09:32.460Z,9.77
2022-11-06T03:14:27.984Z,12.07
2022-11-06T03:19:25.353Z,11.93
2022-11-06T03:24:19.127Z,9.50
2022-11-06T03:29:16.033Z,9.47
2022-11-06T03:34:10.011Z,14.70
2022-11-06T03:39:04.142Z,10.90
2022-11-06T03:43:58.922Z,7.70
2022-11-06T03:48:54.775Z,7.07
2022-11-06T03:53:48.940Z,6.87
2022-11-06T03:58:43.931Z,9.20
2022-11-06T04:03:38.495Z,8.23
2022-11-06T04:08:50.715Z,6.00
2022-11-06T04:14:00.922Z,7.83
2022-11-06T04:18:53.764Z,8.60
2022-11-06T04:24:09.247Z,7.03
2022-11-06T04:29:05.493Z,7.53
2022-11-06T04:33:59.826Z,12.50
2022-11-06T04:38:56.106Z,7.60
2022-11-06T04:43:50.159Z,11.20
2022-11-06T04:48:43.008Z,16.17
2022-11-06T04:53:36.775Z,13.40
2022-11-06T04:58:30.709Z,14.30
2022-11-06T05:03:23.599Z,14.83
2022-11-06T05:08:17.292Z,21.67
2022-11-06T05:13:10.265Z,19.60
2022-11-06T05:18:04.563Z,17.67
2022-11-06T05:23:00.807Z,13.90
2022-11-06T05:27:53.607Z,16.17
2022-11-06T05:32:46.149Z,12.75
2022-11-06T05:37:40.279Z,14.57
2022-11-06T05:42:32.844Z,14.20
2022-11-06T05:47:25.408Z,16.03
2022-11-06T05:52:18.001Z,18.13
2022-11-06T05:57:11.932Z,17.30
2022-11-06T06:02:04.590Z,9.87
2022-11-06T06:06:57.242Z,18.90
2022-11-06T06:11:51.422Z,14.90
2022-11-06T06:16:45.423Z,15.23
2022-11-06T06:21:37.986Z,11.00
2022-11-06T06:26:30.543Z,10.63
2022-11-06T06:31:23.165Z,8.00
2022-11-06T06:36:17.264Z,10.87
2022-11-06T06:41:10.225Z,11.57
2022-11-06T06:46:03.431Z,12.67
2022-11-06T06:50:57.680Z,10.90
2022-11-06T06:55:51.621Z,8.73
2022-11-06T07:00:44.246Z,6.97
2022-11-06T07:05:37.063Z,6.73
2022-11-06T07:10:31.347Z,7.03
2022-11-06T07:15:25.261Z,8.50
2022-11-06T07:20:17.945Z,10.67
2022-11-06T07:25:10.755Z,7.30
2022-11-06T07:30:03.360Z,7.10
2022-11-06T07:34:57.348Z,3.97
2022-11-06T07:39:50.021Z,5.70
2022-11-06T07:44:42.563Z,7.33
2022-11-06T07:49:35.135Z,6.63
2022-11-06T07:54:29.051Z,7.03
2022-11-06T07:59:21.628Z,5.60
2022-11-06T08:04:14.191Z,6.93
2022-11-06T08:09:07.482Z,6.30
2022-11-06T08:14:02.090Z,8.00
2022-11-06T08:18:54.709Z,5.30
2022-11-06T08:23:47.229Z,6.43
2022-11-06T08:28:39.839Z,4.50
2022-11-06T08:33:33.786Z,5.27
2022-11-06T08:38:26.361Z,5.23
2022-11-06T08:43:18.940Z,6.50
2022-11-06T08:48:11.577Z,8.10
2022-11-06T08:53:06.489Z,6.53
2022-11-06T08:57:59.044Z,5.90
2022-11-06T09:02:51.655Z,4.63
2022-11-06T09:07:44.228Z,4.30
2022-11-06T09:12:38.139Z,5.37
2022-11-06T09:17:30.739Z,4.93
2022-11-06T09:22:23.343Z,5.00
2022-11-06T09:27:15.899Z,5.90
2022-11-06T09:32:09.806Z,5.10
2022-11-06T09:37:02.745Z,4.40
2022-11-06T09:41:57.151Z,6.10
2022-11-06T09:46:49.747Z,4.60
2022-11-06T09:51:47.474Z,4.97
2022-11-06T09:56:41.070Z,5.33
2022-11-06T10:01:36.837Z,8.13
2022-11-06T10:06:29.878Z,5.13
2022-11-06T10:11:30.434Z,4.27
2022-11-06T10:16:30.123Z,6.30
2022-11-06T10:21:24.630Z,6.60
2022-11-06T10:26:18.985Z,6.07
2022-11-06T10:31:19.256Z,10.53
2022-11-06T10:36:15.344Z,8.40
2022-11-06T10:41:15.696Z,7.70
2022-11-06T10:46:13.259Z,8.83
2022-11-06T10:51:12.329Z,5.30
2022-11-06T10:56:20.976Z,10.63
2022-11-06T11:01:15.450Z,5.67
2022-11-06T11:06:09.571Z,6.47
2022-11-06T11:11:05.357Z,5.47
2022-11-06T11:15:58.351Z,5.97
2022-11-06T11:20:53.429Z,5.33
2022-11-06T11:25:48.544Z,5.40
2022-11-06T11:30:41.165Z,5.10
2022-11-06T11:35:35.634Z,5.90
2022-11-06T11:40:36.482Z,4.90
2022-11-06T11:45:30.661Z,5.30
2022-11-06T11:50:27.843Z,6.20
2022-11-06T11:55:22.073Z,8.60
2022-11-06T12:00:16.795Z,6.67
2022-11-06T12:05:12.982Z,5.67
2022-11-06T12:10:17.336Z,10.80
2022-11-06T12:15:19.290Z,6.60
2022-11-06T12:20:16.388Z,7.13
2022-11-06T12:25:11.435Z,5.90
2022-11-06T12:30:05.439Z,6.80
2022-11-06T12:35:04.594Z,5.80
2022-11-06T12:40:03.047Z,6.90
2022-11-06T12:44:55.724Z,7.33
2022-11-06T12:50:05.067Z,6.47
2022-11-06T12:55:07.268Z,5.60
2022-11-06T13:00:05.612Z,8.43
2022-11-06T13:05:03.019Z,6.60
2022-11-06T13:10:02.196Z,8.40
2022-11-06T13:14:59.228Z,7.20
2022-11-06T13:19:55.184Z,8.53
2022-11-06T13:24:50.422Z,7.03
2022-11-06T13:29:43.772Z,7.40
2022-11-06T13:34:38.784Z,6.50
2022-11-06T13:39:33.705Z,7.17
2022-11-06T13:44:26.520Z,7.67
2022-11-06T13:49:23.359Z,6.63
2022-11-06T13:54:22.277Z,6.43
2022-11-06T13:59:23.851Z,7.57
2022-11-06T14:04:30.595Z,9.17
2022-11-06T14:09:26.891Z,6.90
2022-11-06T14:14:25.125Z,8.07
2022-11-06T14:19:26.599Z,8.83
2022-11-06T14:24:31.702Z,6.07
2022-11-06T14:29:39.251Z,9.40
2022-11-06T14:34:32.691Z,8.80
2022-11-06T14:39:40.169Z,6.63
2022-11-06T14:44:42.275Z,8.53
2022-11-06T14:49:36.593Z,10.67
2022-11-06T14:54:29.722Z,8.77
2022-11-06T14:59:23.157Z,8.90
2022-11-06T15:04:19.893Z,9.67
2022-11-06T15:09:13.218Z,7.50
2022-11-06T15:14:24.773Z,7.73
2022-11-06T15:19:21.398Z,8.50
2022-11-06T15:24:16.663Z,8.33
2022-11-06T15:29:14.388Z,10.70
2022-11-06T15:34:08.729Z,10.00
2022-11-06T15:39:21.789Z,9.90
2022-11-06T15:44:14.357Z,13.37
2022-11-06T15:49:08.196Z,11.00
2022-11-06T15:54:02.633Z,14.27
2022-11-06T15:59:08.619Z,12.27
2022-11-06T16:04:03.962Z,12.00
2022-11-06T16:08:56.694Z,11.00
2022-11-06T16:13:51.088Z,14.00
2022-11-06T16:18:44.978Z,14.80
2022-11-06T16:23:39.360Z,10.63
2022-11-06T16:28:33.060Z,13.40
2022-11-06T16:33:26.998Z,15.80
2022-11-06T16:38:45.043Z,17.10
2022-11-06T16:43:37.721Z,15.83
2022-11-06T16:48:34.568Z,19.37
2022-11-06T16:53:28.567Z,13.50
2022-11-06T16:58:22.541Z,12.80
2022-11-06T17:03:20.088Z,14.07
2022-11-06T17:08:22.437Z,44.67
2022-11-06T17:13:16.692Z,12.20
2022-11-06T17:18:13.117Z,10.97
2022-11-06T17:23:05.699Z,9.90
2022-11-06T17:27:59.628Z,9.53
2022-11-06T17:32:52.211Z,9.33
2022-11-06T17:37:45.059Z,13.93
2022-11-06T17:42:37.664Z,16.67
2022-11-06T17:47:31.613Z,15.50
2022-11-06T17:52:24.251Z,14.40
2022-11-06T17:57:22.796Z,10.93
2022-11-06T18:02:34.942Z,10.03
2022-11-06T18:07:31.354Z,12.00
2022-11-06T18:12:27.430Z,9.50
2022-11-06T18:17:20.010Z,10.13
2022-11-06T18:22:12.579Z,12.13
2022-11-06T18:27:06.565Z,12.00
2022-11-06T18:31:59.155Z,39.13
2022-11-06T18:36:51.874Z,10.90
2022-11-06T18:41:44.514Z,8.30
2022-11-06T18:46:38.467Z,22.07
2022-11-06T18:51:35.518Z,15.33
2022-11-06T18:56:29.855Z,20.70
2022-11-06T19:01:23.136Z,15.50
2022-11-06T19:06:18.180Z,14.47
2022-11-06T19:11:10.749Z,12.20
2022-11-06T19:16:03.644Z,13.67
2022-11-06T19:20:56.232Z,8.80
2022-11-06T19:25:54.544Z,6.97
2022-11-06T19:30:58.647Z,5.90
2022-11-06T19:35:51.210Z,5.67
2022-11-06T19:40:43.769Z,4.13
2022-11-06T19:45:37.746Z,10.37
2022-11-06T19:50:53.892Z,3.87
2022-11-06T19:55:42.887Z,5.07
2022-11-06T20:00:38.194Z,4.73
2022-11-06T20:05:30.798Z,3.70
2022-11-06T20:10:23.387Z,4.43
2022-11-06T20:15:18.768Z,4.00
2022-11-06T20:20:16.890Z,5.63
2022-11-06T20:25:09.815Z,5.20
2022-11-06T20:30:02.950Z,4.63
2022-11-06T20:34:55.527Z,3.03
2022-11-06T20:39:52.024Z,2.67
2022-11-06T20:44:44.947Z,4.20
2022-11-06T20:49:37.743Z,2.87
2022-11-06T20:54:30.462Z,3.30
2022-11-06T20:59:24.476Z,2.97
2022-11-06T21:04:17.612Z,3.10
2022-11-06T21:09:10.482Z,2.87
2022-11-06T21:14:03.069Z,3.07
2022-11-06T21:18:57.032Z,2.53
2022-11-06T21:23:50.155Z,4.80
2022-11-06T21:28:44.165Z,2.50
2022-11-06T21:33:36.735Z,2.60
2022-11-06T21:38:30.677Z,2.17
2022-11-06T21:43:23.267Z,2.80
2022-11-06T21:48:40.243Z,3.30
2022-11-06T21:53:47.097Z,4.97
2022-11-06T21:58:39.667Z,3.60
2022-11-06T22:03:32.869Z,5.23
2022-11-06T22:08:30.343Z,12.07
2022-11-06T22:13:24.533Z,4.13
2022-11-06T22:18:17.117Z,3.70
2022-11-06T22:23:09.691Z,4.50
2022-11-06T22:28:02.283Z,3.67
2022-11-06T22:32:56.345Z,5.00
2022-11-06T22:37:49.459Z,3.60
2022-11-06T22:42:42.137Z,4.17
2022-11-06T22:47:37.325Z,3.60
2022-11-06T22:52:31.308Z,3.53
2022-11-06T22:57:23.934Z,3.70
2022-11-06T23:02:16.947Z,3.67
2022-11-06T23:07:09.629Z,2.70
2022-11-06T23:12:03.632Z,3.90
2022-11-06T23:17:00.731Z,2.80
2022-11-06T23:22:13.772Z,2.70
2022-11-06T23:27:07.739Z,2.30
2022-11-06T23:32:00.423Z,2.63
2022-11-06T23:36:53.022Z,3.10
2022-11-06T23:41:46.174Z,3.23
2022-11-06T23:46:40.304Z,2.87
2022-11-06T23:51:32.909Z,2.70
2022-11-06T23:56:25.487Z,4.30
